Time;durP1;ratioP1;P1;durP2;ratioP2;P2;SDS_P1;SDS_P2;PMS_P1;PMS_P2;Temp;Humidity;BMP_temperature;BMP_pressure;BME280_temperature;BME280_humidity;BME280_pressure;Samples;Min_cycle;Max_cycle;Signal;HPM_P1;HPM_P2
2022/04/21 00:01:21;;;;;;;6.45;1.90;;;;;;;12.38;68.28;101406.47;2076262;28;20057;-74
2022/04/21 00:02:43;;;;;;;6.13;1.92;;;;;;;12.37;68.12;101402.03;2062638;28;20046;-75
2022/04/21 00:04:06;;;;;;;4.18;1.60;;;;;;;12.36;67.94;101409.06;2066454;28;20092;-74
2022/04/21 00:05:28;;;;;;;8.90;1.83;;;;;;;12.34;68.07;101405.50;2066417;28;20050;-74
2022/04/21 00:06:50;;;;;;;6.18;1.92;;;;;;;12.34;68.21;101409.88;2068487;28;20076;-75
2022/04/21 00:08:17;;;;;;;6.38;2.00;;;;;;;12.34;68.19;101405.50;2069502;28;20057;-74
2022/04/21 00:09:38;;;;;;;4.82;2.10;;;;;;;12.35;68.08;101403.72;2060933;28;20046;-74
2022/04/21 00:11:02;;;;;;;9.02;1.98;;;;;;;12.34;68.45;101409.88;2080888;28;20088;-74
2022/04/21 00:12:23;;;;;;;3.33;1.67;;;;;;;12.33;68.43;101413.44;2073669;28;20053;-74
2022/04/21 00:13:46;;;;;;;4.88;1.88;;;;;;;12.31;68.59;101407.19;2085496;28;20059;-74
2022/04/21 00:15:09;;;;;;;4.32;1.90;;;;;;;12.34;68.81;101415.19;2073461;28;20046;-75
2022/04/21 00:16:32;;;;;;;3.88;1.70;;;;;;;12.31;68.75;101416.03;2078888;28;20053;-74
2022/04/21 00:17:54;;;;;;;5.18;2.35;;;;;;;12.32;68.73;101411.63;2071493;28;20092;-74
2022/04/21 00:19:16;;;;;;;5.65;1.90;;;;;;;12.33;68.52;101416.97;2081426;28;20053;-74
2022/04/21 00:20:39;;;;;;;5.20;2.47;;;;;;;12.33;68.59;101410.78;2072758;28;20064;-75
2022/04/21 00:23:40;;;;;;;5.45;2.13;;;;;;;12.33;68.45;101406.38;2071623;28;20108;-74
2022/04/21 00:25:03;;;;;;;9.20;2.60;;;;;;;12.30;68.42;101402.75;2079456;28;20124;-74
2022/04/21 00:26:27;;;;;;;7.10;2.10;;;;;;;12.28;68.51;101410.66;2068501;28;20141;-74
2022/04/21 00:27:49;;;;;;;3.67;1.92;;;;;;;12.25;68.68;101412.38;2061063;28;20521;-74
2022/04/21 00:29:12;;;;;;;5.72;1.98;;;;;;;12.21;68.56;101414.06;2062092;28;20178;-75
2022/04/21 00:30:35;;;;;;;4.45;1.77;;;;;;;12.20;69.29;101412.31;2067944;28;20594;-74
2022/04/21 00:31:58;;;;;;;3.83;2.10;;;;;;;12.21;69.21;101413.16;2071638;28;20045;-74
2022/04/21 00:33:20;;;;;;;6.78;2.70;;;;;;;12.20;69.36;101404.38;2078756;28;20528;-74
2022/04/21 00:34:41;;;;;;;5.07;1.73;;;;;;;12.21;69.03;101402.56;2074249;28;20045;-74
2022/04/21 00:36:04;;;;;;;6.45;2.20;;;;;;;12.22;69.24;101407.91;2075643;28;20423;-74
2022/04/21 00:37:26;;;;;;;7.20;1.98;;;;;;;12.24;69.65;101407.94;2072674;28;20061;-74
2022/04/21 00:38:48;;;;;;;5.80;1.95;;;;;;;12.24;68.95;101402.66;2085078;28;20053;-74
2022/04/21 00:40:11;;;;;;;5.25;2.45;;;;;;;12.22;69.22;101399.06;2072618;28;21960;-74
2022/04/21 00:41:35;;;;;;;5.45;2.20;;;;;;;12.21;69.09;101408.75;2070068;28;20516;-74
2022/04/21 00:42:58;;;;;;;8.50;2.53;;;;;;;12.19;68.84;101410.50;2070447;28;20084;-74
2022/04/21 00:44:21;;;;;;;4.85;1.75;;;;;;;12.16;69.21;101402.50;2059742;28;20058;-74
2022/04/21 00:45:43;;;;;;;8.05;1.65;;;;;;;12.13;69.27;101402.47;2075273;28;20539;-74
2022/04/21 00:47:06;;;;;;;3.17;1.60;;;;;;;12.12;69.59;101405.06;2058166;28;20051;-74
2022/04/21 00:48:29;;;;;;;13.77;2.47;;;;;;;12.09;69.63;101405.00;2050481;28;20047;-73
2022/04/21 00:49:52;;;;;;;8.00;2.25;;;;;;;12.08;69.53;101406.75;2066830;28;20573;-74
2022/04/21 00:51:14;;;;;;;4.22;2.30;;;;;;;12.07;69.42;101404.09;2067569;28;20062;-74
2022/04/21 00:52:36;;;;;;;5.03;1.60;;;;;;;12.05;69.44;101405.81;2078626;28;20140;-73
2022/04/21 00:53:58;;;;;;;7.70;2.08;;;;;;;12.04;69.37;101406.66;2075798;28;20037;-74
2022/04/21 00:55:20;;;;;;;5.43;1.80;;;;;;;12.04;69.45;101404.03;2074965;28;20053;-74
2022/04/21 00:56:45;;;;;;;6.72;2.38;;;;;;;12.05;69.67;101405.81;2070442;28;20514;-73
2022/04/21 00:58:09;;;;;;;8.05;2.80;;;;;;;12.03;69.83;101403.13;2084696;28;20052;-73
2022/04/21 00:59:31;;;;;;;3.38;2.10;;;;;;;12.03;69.68;101402.22;2073777;28;20057;-73
2022/04/21 01:00:54;;;;;;;;;;;;;;;12.01;69.52;101399.56;2072720;28;20145;-72
2022/04/21 01:03:55;;;;;;;6.43;3.05;;;;;;;11.97;68.98;101403.00;2085309;28;20049;-74
2022/04/21 01:05:18;;;;;;;;;;;;;;;11.92;69.30;101405.56;2079369;28;20042;-74
2022/04/21 01:06:41;;;;;;;6.35;2.78;;;;;;;11.90;69.31;101409.94;2069202;28;19976;-73
2022/04/21 01:08:04;;;;;;;5.75;2.90;;;;;;;11.90;69.73;101406.38;2059743;28;20038;-74
2022/04/21 01:09:26;;;;;;;5.95;2.83;;;;;;;11.88;69.69;101400.19;2054405;28;20043;-74
2022/04/21 01:10:50;;;;;;;7.47;2.90;;;;;;;11.88;69.85;101398.41;2066161;28;20483;-73
2022/04/21 01:12:14;;;;;;;5.43;3.03;;;;;;;11.88;70.37;101403.69;2076254;28;20049;-74
2022/04/21 01:13:36;;;;;;;5.72;2.85;;;;;;;11.87;70.28;101401.94;2061726;28;20109;-73
2022/04/21 01:14:58;;;;;;;4.85;2.65;;;;;;;11.87;70.30;101394.00;2068391;28;20050;-74
2022/04/21 01:16:21;;;;;;;6.43;2.33;;;;;;;11.86;70.57;101397.50;2075636;28;20140;-74
2022/04/21 01:17:43;;;;;;;9.30;2.85;;;;;;;11.86;70.39;101400.16;2070048;28;20057;-74
2022/04/21 01:19:05;;;;;;;5.70;2.10;;;;;;;11.86;70.55;101404.53;2074088;28;20119;-73
2022/04/21 01:20:29;;;;;;;9.68;2.88;;;;;;;11.88;70.97;101402.84;2061944;28;20550;-73
2022/04/21 01:21:51;;;;;;;3.47;1.90;;;;;;;11.89;70.79;101394.91;2084232;28;20441;-73
2022/04/21 01:23:13;;;;;;;4.40;1.92;;;;;;;11.90;70.71;101399.34;2074643;28;20096;-73
2022/04/21 01:24:34;;;;;;;3.72;1.58;;;;;;;11.91;70.85;101395.84;2086617;28;20056;-74
2022/04/21 01:25:58;;;;;;;5.40;2.05;;;;;;;11.93;70.61;101394.13;2067262;28;20065;-73
2022/04/21 01:27:23;;;;;;;4.50;2.15;;;;;;;11.93;70.81;101399.41;2070475;28;20042;-74
2022/04/21 01:28:47;;;;;;;5.13;2.53;;;;;;;11.94;70.72;101406.50;2062492;28;20140;-73
2022/04/21 01:30:11;;;;;;;10.95;2.58;;;;;;;11.93;70.54;101401.16;2084169;28;20567;-73
2022/04/21 01:31:35;;;;;;;6.70;2.60;;;;;;;11.91;70.60;101405.53;2077590;28;20046;-73
2022/04/21 01:32:58;;;;;;;8.02;2.47;;;;;;;11.88;70.26;101403.69;2080484;28;20041;-73
2022/04/21 01:34:20;;;;;;;5.30;1.95;;;;;;;11.87;70.37;101407.22;2074371;28;20180;-73
2022/04/21 01:35:45;;;;;;;2.78;1.48;;;;;;;11.86;70.63;101404.53;2062045;28;20050;-73
2022/04/21 01:42:08;;;;;;;4.63;2.00;;;;;;;11.68;70.03;101399.75;2063921;28;20038;-73
2022/04/21 01:43:30;;;;;;;5.60;2.30;;;;;;;11.65;70.12;101402.31;2061884;28;20046;-73
2022/04/21 01:44:52;;;;;;;6.00;2.25;;;;;;;11.62;70.30;101399.56;2059401;28;20046;-74
2022/04/21 01:46:15;;;;;;;4.72;2.05;;;;;;;11.61;70.32;101383.72;2067425;28;20065;-73
2022/04/21 01:47:36;;;;;;;5.25;1.73;;;;;;;11.58;70.51;101384.53;2070154;28;20057;-74
2022/04/21 01:48:59;;;;;;;6.60;2.65;;;;;;;11.59;70.55;101391.59;2061258;28;20054;-74
2022/04/21 01:50:20;;;;;;;4.55;1.50;;;;;;;11.56;70.82;101386.22;2082842;28;20602;-73
2022/04/21 01:51:44;;;;;;;5.60;2.40;;;;;;;11.57;70.87;101388.03;2083037;28;20072;-74
2022/04/21 01:53:07;;;;;;;9.85;2.80;;;;;;;11.56;71.06;101394.16;2073992;28;20045;-73
2022/04/21 01:54:29;;;;;;;1.40;1.20;;;;;;;11.53;71.26;101388.81;2063506;28;20050;-73
2022/04/21 01:55:51;;;;;;;6.82;2.45;;;;;;;11.50;71.48;101384.34;2059592;28;20152;-73
2022/04/21 01:57:13;;;;;;;9.32;2.80;;;;;;;11.50;71.50;101387.00;2069165;28;20534;-74
2022/04/21 01:58:35;;;;;;;7.88;2.72;;;;;;;11.49;71.61;101386.94;2069516;28;20124;-73
2022/04/21 01:59:56;;;;;;;8.48;3.28;;;;;;;11.49;71.58;101386.94;2066295;28;20041;-73
2022/04/21 02:01:19;;;;;;;7.28;2.80;;;;;;;11.49;71.76;101381.66;2069270;28;20141;-73
2022/04/21 02:02:41;;;;;;;5.93;2.55;;;;;;;11.52;71.68;101381.75;2077178;28;20511;-73
2022/04/21 02:04:04;;;;;;;9.35;2.17;;;;;;;11.51;71.83;101385.25;2058791;28;20481;-74
2022/04/21 02:05:26;;;;;;;4.55;2.70;;;;;;;11.51;71.71;101386.13;2075658;28;20053;-73
2022/04/21 02:06:49;;;;;;;9.30;3.20;;;;;;;11.50;71.65;101388.75;2073943;28;20129;-74
2022/04/21 02:08:12;;;;;;;7.28;2.25;;;;;;;11.46;71.73;101384.25;2077829;28;20523;-74
2022/04/21 02:09:33;;;;;;;5.80;2.85;;;;;;;11.44;71.72;101380.69;2069790;28;20091;-73
2022/04/21 02:10:56;;;;;;;9.45;2.22;;;;;;;11.45;71.77;101385.13;2063926;28;20504;-74
2022/04/21 02:12:17;;;;;;;6.10;2.47;;;;;;;11.42;71.76;101385.94;2083587;28;20445;-73
2022/04/21 02:13:40;;;;;;;6.45;2.67;;;;;;;11.42;71.66;101380.63;2073296;28;20073;-73
2022/04/21 02:15:02;;;;;;;4.57;2.33;;;;;;;11.43;71.51;101379.78;2080230;28;20087;-74
2022/04/21 02:16:24;;;;;;;4.93;2.30;;;;;;;11.43;71.55;101387.72;2077976;28;20049;-73
2022/04/21 02:17:46;;;;;;;3.78;2.00;;;;;;;11.41;71.57;101381.53;2075271;28;20050;-74
2022/04/21 02:19:08;;;;;;;4.43;2.45;;;;;;;11.40;71.33;101386.78;2085367;28;20192;-74
2022/04/21 02:20:30;;;;;;;5.38;2.33;;;;;;;11.39;71.53;101390.25;2074017;28;20045;-73
2022/04/21 02:21:53;;;;;;;5.07;2.53;;;;;;;11.37;71.24;101387.59;2061843;28;20176;-73
2022/04/21 02:23:15;;;;;;;4.32;1.95;;;;;;;11.35;71.52;101385.78;2057799;28;20551;-74
2022/04/21 02:24:37;;;;;;;5.53;2.17;;;;;;;11.32;71.54;101388.34;2061679;28;20038;-74
2022/04/21 02:26:00;;;;;;;4.55;2.42;;;;;;;11.29;71.60;101383.88;2067239;28;20042;-73
2022/04/21 02:27:21;;;;;;;3.78;2.50;;;;;;;11.29;71.57;101377.72;2069800;28;20062;-73
2022/04/21 02:28:44;;;;;;;3.13;1.90;;;;;;;11.27;71.56;101380.31;2081771;28;20584;-73
2022/04/21 02:30:09;;;;;;;7.22;2.72;;;;;;;11.29;71.50;101380.38;2074916;28;20623;-73
2022/04/21 02:31:31;;;;;;;7.88;2.65;;;;;;;11.29;71.67;101372.44;2071945;28;20498;-74
2022/04/21 02:32:54;;;;;;;6.35;2.50;;;;;;;11.31;71.71;101389.19;2066865;28;20096;-73
2022/04/21 02:34:15;;;;;;;8.25;2.50;;;;;;;11.31;71.65;101378.63;2074210;28;20054;-73
2022/04/21 02:35:38;;;;;;;6.47;2.22;;;;;;;11.31;71.68;101378.63;2076592;28;20503;-73
2022/04/21 02:37:01;;;;;;;11.45;2.97;;;;;;;11.32;71.97;101375.13;2067111;28;20046;-73
2022/04/21 02:38:23;;;;;;;6.93;2.22;;;;;;;11.30;71.88;101364.50;2067975;28;20060;-73
2022/04/21 02:39:45;;;;;;;6.20;2.63;;;;;;;11.31;71.96;101361.00;2066491;28;20611;-73
2022/04/21 02:41:07;;;;;;;3.55;2.03;;;;;;;11.29;71.97;101352.16;2073178;28;20148;-74
2022/04/21 02:42:30;;;;;;;5.45;2.30;;;;;;;11.27;71.88;101345.97;2071917;28;20554;-73
2022/04/21 02:43:51;;;;;;;6.95;2.30;;;;;;;11.26;72.28;101353.84;2069649;28;20547;-74
2022/04/21 02:45:15;;;;;;;3.60;2.05;;;;;;;11.25;72.05;101350.31;2060903;28;20149;-73
2022/04/21 02:46:37;;;;;;;7.15;2.13;;;;;;;11.25;72.15;101355.59;2067168;28;20058;-74
2022/04/21 02:48:00;;;;;;;5.38;2.45;;;;;;;11.23;72.18;101365.22;2063030;28;20050;-74
2022/04/21 02:49:21;;;;;;;5.80;1.92;;;;;;;11.18;72.21;101361.59;2074305;28;20141;-74
2022/04/21 02:50:45;;;;;;;6.28;2.40;;;;;;;11.13;72.44;101365.91;2076183;28;20531;-74
2022/04/21 02:52:11;;;;;;;6.05;2.85;;;;;;;11.10;72.11;101355.25;2077499;28;20080;-73
2022/04/21 02:58:33;;;;;;;7.28;3.47;;;;;;;11.08;72.71;101355.22;2063268;28;20046;-72
2022/04/21 02:59:58;;;;;;;9.38;3.30;;;;;;;11.10;72.49;101360.53;2080433;28;20090;-73
2022/04/21 03:01:20;;;;;;;8.07;3.25;;;;;;;11.09;72.41;101364.06;2073543;28;20046;-73
2022/04/21 03:02:42;;;;;;;5.68;2.78;;;;;;;11.07;72.24;101366.66;2085639;28;20118;-72
2022/04/21 03:04:04;;;;;;;4.43;2.67;;;;;;;11.06;72.71;101356.94;2070871;28;20057;-73
2022/04/21 03:05:26;;;;;;;5.35;2.35;;;;;;;11.05;72.62;101365.72;2077405;28;20132;-73
2022/04/21 03:06:48;;;;;;;7.25;2.58;;;;;;;11.04;73.09;101356.00;2064582;28;20042;-73
2022/04/21 03:08:12;;;;;;;6.13;3.00;;;;;;;11.08;73.49;101356.97;2071956;28;20042;-73
2022/04/21 03:09:33;;;;;;;7.60;2.90;;;;;;;11.09;73.43;101353.47;2068057;28;20121;-73
2022/04/21 03:10:56;;;;;;;7.10;2.63;;;;;;;11.11;73.80;101357.94;2058150;28;20046;-73
2022/04/21 03:12:18;;;;;;;7.25;3.15;;;;;;;11.13;73.80;101355.31;2066763;28;20156;-73
2022/04/21 03:13:41;;;;;;;7.95;3.20;;;;;;;11.14;73.72;101355.38;2084435;28;20045;-73
2022/04/21 03:15:04;;;;;;;5.70;2.33;;;;;;;-143.60;100.00;57988.34;2073853;28;20054;-73
2022/04/21 03:16:25;;;;;;;9.15;2.88;;;;;;;-143.60;100.00;57988.34;2072171;28;20142;-73
2022/04/21 03:17:48;;;;;;;7.43;1.77;;;;;;;-143.60;100.00;57988.34;2083330;28;20075;-73
2022/04/21 03:19:10;;;;;;;4.50;1.92;;;;;;;-143.60;100.00;57988.34;2074193;28;20045;-74
2022/04/21 03:25:35;;;;;;;9.60;3.00;;;;;;;-143.60;100.00;112174.59;2077435;28;20177;-73
2022/04/21 03:26:58;;;;;;;5.45;2.67;;;;;;;-143.60;100.00;57988.34;2076556;28;20041;-72
2022/04/21 03:28:21;;;;;;;9.68;2.38;;;;;;;-143.60;100.00;57988.34;2068129;28;20558;-73
2022/04/21 03:29:44;;;;;;;8.63;2.70;;;;;;;-143.60;100.00;57988.34;2069109;28;20133;-73
2022/04/21 03:31:05;;;;;;;6.25;2.67;;;;;;;-143.60;100.00;57988.34;2061819;28;20476;-73
2022/04/21 03:32:29;;;;;;;6.18;2.83;;;;;;;-143.60;100.00;93474.88;2074787;28;20053;-73
2022/04/21 03:33:50;;;;;;;7.22;3.05;;;;;;;11.14;73.72;101355.38;2073637;28;20033;-73
2022/04/21 03:35:13;;;;;;;6.38;2.45;;;;;;;-143.60;100.00;57988.34;2069088;28;20054;-73
2022/04/21 03:36:35;;;;;;;3.38;1.40;;;;;;;-143.60;100.00;57988.34;2063919;28;20054;-73
2022/04/21 03:37:58;;;;;;;5.70;2.53;;;;;;;-143.60;16.51;57988.34;2083160;28;20573;-73
2022/04/21 03:39:23;;;;;;;8.20;2.20;;;;;;;11.19;72.68;101388.06;2074391;28;20492;-73
2022/04/21 03:40:45;;;;;;;6.13;3.85;;;;;;;-143.60;100.00;57988.34;2077684;28;20053;-73
2022/04/21 03:42:09;;;;;;;4.28;2.30;;;;;;;11.19;100.00;76787.03;2068270;28;20038;-73
2022/04/21 03:43:31;;;;;;;5.05;2.40;;;;;;;11.19;72.68;101388.06;2063507;28;20145;-73
2022/04/21 03:44:53;;;;;;;2.80;2.05;;;;;;;-143.60;100.00;57988.34;2074634;28;20041;-73
2022/04/21 03:46:15;;;;;;;5.93;2.20;;;;;;;-143.60;100.00;57988.34;2070704;28;20476;-73
2022/04/21 03:47:38;;;;;;;4.97;2.20;;;;;;;-143.60;100.00;57988.34;2060604;28;20042;-73
2022/04/21 03:48:59;;;;;;;6.97;2.78;;;;;;;-143.60;nan;57988.34;2067060;28;20049;-73
2022/04/21 03:50:22;;;;;;;8.27;2.55;;;;;;;-143.60;100.00;57988.34;2061039;28;20050;-74
2022/04/21 03:51:43;;;;;;;3.22;1.85;;;;;;;-143.60;100.00;57988.34;2064126;28;20038;-73
2022/04/21 03:53:06;;;;;;;7.95;2.55;;;;;;;-143.60;100.00;57988.34;2066454;28;20103;-73
2022/04/21 03:54:30;;;;;;;8.07;2.70;;;;;;;-143.60;100.00;57988.34;2068779;28;20119;-73
2022/04/21 03:55:51;;;;;;;7.55;2.78;;;;;;;-143.60;100.00;57988.34;2061132;28;20046;-73
2022/04/21 03:57:14;;;;;;;6.28;2.40;;;;;;;-143.60;100.00;57988.34;2065737;28;20057;-73
2022/04/21 03:58:37;;;;;;;5.40;2.60;;;;;;;-143.60;100.00;57988.34;2077401;28;20053;-73
2022/04/21 04:00:00;;;;;;;5.57;2.70;;;;;;;-143.60;100.00;57988.34;2074319;28;20096;-73
2022/04/21 04:01:22;;;;;;;5.22;2.25;;;;;;;-143.60;100.00;57988.34;2061080;28;20081;-73
2022/04/21 04:02:44;;;;;;;8.82;2.88;;;;;;;-143.60;100.00;57988.34;2060694;28;20081;-73
2022/04/21 04:04:05;;;;;;;4.57;2.10;;;;;;;-143.60;100.00;57988.34;2064960;28;20050;-73
2022/04/21 04:05:28;;;;;;;5.32;2.45;;;;;;;-143.60;100.00;57988.34;2073370;28;20049;-73
2022/04/21 04:11:51;;;;;;;2.70;1.67;;;;;;;-143.59;100.00;57988.34;2063387;28;20145;-73
2022/04/21 04:13:12;;;;;;;5.60;2.20;;;;;;;11.19;100.00;72230.50;2081473;28;20044;-73
2022/04/21 04:14:36;;;;;;;3.45;1.92;;;;;;;-143.60;100.00;57988.34;2068797;28;20522;-73
2022/04/21 04:16:00;;;;;;;6.10;2.45;;;;;;;-143.60;100.00;57988.34;2084321;28;20053;-74
2022/04/21 04:17:21;;;;;;;5.18;2.35;;;;;;;-143.60;100.00;57988.34;2071711;28;20108;-73
2022/04/21 04:18:43;;;;;;;3.70;2.05;;;;;;;-143.60;100.00;57988.34;2061027;28;20054;-73
2022/04/21 04:20:07;;;;;;;6.03;2.25;;;;;;;-143.60;100.00;57988.34;2065819;28;20046;-73
2022/04/21 04:21:28;;;;;;;6.90;2.20;;;;;;;-143.60;100.00;57988.34;2065162;28;20580;-72
2022/04/21 04:22:51;;;;;;;8.88;2.17;;;;;;;-143.60;100.00;57988.34;2074732;28;20061;-73
2022/04/21 04:24:14;;;;;;;10.65;2.40;;;;;;;-143.60;100.00;57988.34;2084337;28;20049;-73
2022/04/21 04:25:38;;;;;;;7.28;2.10;;;;;;;-143.60;100.00;57988.34;2080843;28;20057;-73
2022/04/21 04:27:00;;;;;;;5.50;1.73;;;;;;;-143.60;100.00;57988.34;2079207;28;20083;-74
2022/04/21 04:28:23;;;;;;;3.88;1.73;;;;;;;-143.60;100.00;57988.34;2071444;28;20147;-73
2022/04/21 04:29:44;;;;;;;5.47;2.05;;;;;;;-143.60;100.00;57988.34;2077166;28;20087;-73
2022/04/21 04:31:08;;;;;;;3.85;1.60;;;;;;;-143.60;100.00;57988.34;2077364;28;20495;-73
2022/04/21 04:32:30;;;;;;;5.70;1.92;;;;;;;-143.60;100.00;57988.34;2070736;28;20455;-74
2022/04/21 04:33:53;;;;;;;5.00;2.20;;;;;;;-143.60;100.00;57988.34;2065436;28;20494;-73
2022/04/21 04:35:15;;;;;;;5.18;1.80;;;;;;;-143.60;100.00;57988.34;2078631;28;20605;-74
2022/04/21 04:36:38;;;;;;;4.95;2.00;;;;;;;-143.60;100.00;57988.34;2078634;28;20080;-73
2022/04/21 04:38:01;;;;;;;7.90;1.88;;;;;;;-143.60;100.00;57988.34;2073049;28;20050;-73
2022/04/21 04:39:24;;;;;;;6.72;1.55;;;;;;;-143.60;100.00;57988.34;2070820;28;20508;-73
2022/04/21 04:40:48;;;;;;;2.55;1.58;;;;;;;-143.60;100.00;57988.34;2067481;28;20062;-72
2022/04/21 04:42:20;;;;;;;3.72;1.65;;;;;;;-143.60;100.00;57988.34;2071405;28;20184;-73
2022/04/21 04:43:42;;;;;;;2.70;1.58;;;;;;;-143.60;100.00;57988.34;2069216;28;20369;-74
2022/04/21 04:46:45;;;;;;;5.35;1.65;;;;;;;-143.60;100.00;57988.34;2079400;28;20088;-73
2022/04/21 04:48:07;;;;;;;3.75;1.80;;;;;;;-143.60;100.00;57988.34;2068693;28;20411;-74
2022/04/21 04:49:29;;;;;;;2.85;1.52;;;;;;;-143.60;100.00;57988.34;2056684;28;20109;-73
2022/04/21 04:50:52;;;;;;;5.97;1.90;;;;;;;-143.60;100.00;57988.34;2067550;28;20081;-73
2022/04/21 04:52:13;;;;;;;3.72;1.60;;;;;;;-143.60;100.00;57988.34;2062959;28;20045;-73
2022/04/21 04:53:35;;;;;;;2.92;1.55;;;;;;;-143.60;100.00;57988.34;2063098;28;20137;-73
2022/04/21 04:54:58;;;;;;;4.20;1.70;;;;;;;-143.60;100.00;57988.34;2075878;28;20041;-73
2022/04/21 04:56:21;;;;;;;6.20;1.40;;;;;;;-143.60;100.00;57988.34;2067939;28;20046;-73
2022/04/21 04:57:46;;;;;;;4.03;1.35;;;;;;;-143.60;100.00;57988.34;2070687;28;20137;-74
2022/04/21 04:59:09;;;;;;;3.00;1.40;;;;;;;-143.60;100.00;57988.34;2085515;28;20091;-73
2022/04/21 05:00:32;;;;;;;3.90;1.30;;;;;;;-143.60;100.00;57988.34;2065907;28;20038;-73
2022/04/21 05:01:54;;;;;;;4.18;1.55;;;;;;;-143.60;100.00;57988.34;2080741;28;20045;-74
2022/04/21 05:03:19;;;;;;;5.32;1.98;;;;;;;-143.60;100.00;57988.34;2072614;28;20100;-74
2022/04/21 05:04:41;;;;;;;3.30;1.60;;;;;;;-143.60;100.00;57988.34;2084994;28;20045;-73
2022/04/21 05:06:05;;;;;;;6.20;1.55;;;;;;;-143.60;100.00;57988.34;2069732;28;20042;-74
2022/04/21 05:07:28;;;;;;;3.13;1.58;;;;;;;-143.60;100.00;57988.34;2061806;28;20150;-73
2022/04/21 05:08:50;;;;;;;5.25;1.45;;;;;;;-143.60;100.00;57988.34;2060500;28;20164;-74
2022/04/21 05:10:17;;;;;;;3.45;1.70;;;;;;;-143.60;100.00;57988.34;2055118;28;20117;-74
2022/04/21 05:11:43;;;;;;;2.97;0.98;;;;;;;-143.60;100.00;57988.34;2075827;28;20916;-74
2022/04/21 05:13:05;;;;;;;2.97;1.33;;;;;;;-143.60;100.00;57988.34;2068712;28;20042;-74
2022/04/21 05:14:29;;;;;;;1.77;0.93;;;;;;;-143.60;100.00;57988.34;2069235;28;20053;-74
2022/04/21 05:15:51;;;;;;;3.28;1.55;;;;;;;-143.60;100.00;57988.34;2082187;28;20469;-74
2022/04/21 05:17:14;;;;;;;4.47;1.52;;;;;;;-143.60;100.00;57988.34;2074740;28;20050;-74
2022/04/21 05:18:36;;;;;;;4.72;1.40;;;;;;;-143.60;100.00;57988.34;2072037;28;20653;-74
2022/04/21 05:19:59;;;;;;;4.03;1.50;;;;;;;-143.60;100.00;57988.34;2083235;28;20087;-74
2022/04/21 05:21:20;;;;;;;3.33;1.00;;;;;;;-143.60;100.00;57988.34;2065611;28;20057;-74
2022/04/21 05:22:47;;;;;;;4.03;1.30;;;;;;;-143.60;100.00;57988.34;2067734;28;20073;-74
2022/04/21 05:24:11;;;;;;;4.72;1.73;;;;;;;-143.60;100.00;57988.34;2061644;28;20100;-74
2022/04/21 05:25:36;;;;;;;3.30;1.30;;;;;;;-143.60;100.00;57988.34;2079708;28;20037;-74
2022/04/21 05:27:01;;;;;;;2.95;1.45;;;;;;;-143.60;100.00;57988.34;2069229;28;20471;-74
2022/04/21 05:28:24;;;;;;;5.47;1.40;;;;;;;-143.60;100.00;57988.34;2068240;28;20050;-74
2022/04/21 05:31:28;;;;;;;3.08;1.10;;;;;;;-143.60;100.00;57988.34;2068276;28;20080;-74
2022/04/21 05:32:54;;;;;;;6.30;1.13;;;;;;;-143.60;100.00;57988.34;2070452;28;20038;-74
2022/04/21 05:34:17;;;;;;;4.38;1.30;;;;;;;-143.60;100.00;57988.34;2068026;28;20100;-73
2022/04/21 05:35:39;;;;;;;8.88;2.10;;;;;;;-143.60;100.00;57988.34;2062098;28;20042;-74
2022/04/21 05:37:03;;;;;;;4.68;1.67;;;;;;;-143.60;100.00;57988.34;2065172;28;20470;-74
2022/04/21 05:38:25;;;;;;;2.85;1.38;;;;;;;-143.60;100.00;57988.34;2065948;28;20053;-73
2022/04/21 05:39:48;;;;;;;3.63;1.40;;;;;;;-143.60;100.00;57988.34;2071427;28;20083;-73
2022/04/21 05:41:13;;;;;;;3.30;1.40;;;;;;;-143.60;100.00;57988.34;2069179;28;20085;-73
2022/04/21 05:42:45;;;;;;;3.33;1.15;;;;;;;-143.60;100.00;57988.34;2054878;28;20046;-73
2022/04/21 05:44:08;;;;;;;;;;;;;;;-143.60;100.00;57988.34;2084372;28;20422;-75
2022/04/21 05:45:29;;;;;;;;;;;;;;;-143.60;100.00;57988.34;2074034;28;20294;-74
2022/04/21 05:46:52;;;;;;;5.05;1.58;;;;;;;-143.60;100.00;57988.34;2069955;28;19921;-74
2022/04/21 05:48:14;;;;;;;4.68;1.27;;;;;;;-143.60;100.00;57988.34;2075570;28;20506;-73
2022/04/21 05:49:37;;;;;;;4.10;1.60;;;;;;;-143.60;100.00;57988.34;2069856;28;20265;-75
2022/04/21 05:51:02;;;;;;;4.45;1.17;;;;;;;-143.60;100.00;57988.34;2072725;28;20042;-74
2022/04/21 05:52:29;;;;;;;5.60;1.55;;;;;;;-143.60;100.00;57988.34;2056662;28;20116;-74
2022/04/21 05:53:52;;;;;;;5.03;1.55;;;;;;;-143.60;100.00;57988.34;2083457;28;20612;-74
2022/04/21 05:55:16;;;;;;;6.75;1.40;;;;;;;-143.60;100.00;57988.34;2066637;28;20053;-73
2022/04/21 05:56:40;;;;;;;3.53;1.92;;;;;;;-143.60;100.00;57988.34;2051962;28;20046;-74
2022/04/21 05:58:03;;;;;;;4.68;1.60;;;;;;;-143.60;100.00;57988.34;2077241;28;20049;-74
2022/04/21 05:59:25;;;;;;;5.47;1.75;;;;;;;-143.60;100.00;57988.34;2074467;28;20050;-74
2022/04/21 06:00:47;;;;;;;6.22;2.05;;;;;;;-143.60;100.00;57988.34;2069186;28;20053;-74
2022/04/21 06:02:10;;;;;;;3.75;1.75;;;;;;;-143.60;100.00;57988.34;2073839;28;20041;-74
2022/04/21 06:03:33;;;;;;;5.45;1.58;;;;;;;-143.60;100.00;57988.34;2079040;28;20052;-75
2022/04/21 06:04:59;;;;;;;5.78;1.92;;;;;;;-143.60;100.00;57988.34;2066936;28;20046;-75
2022/04/21 06:06:22;;;;;;;5.25;1.77;;;;;;;-143.60;100.00;57988.34;2079224;28;20481;-74
2022/04/21 06:07:44;;;;;;;4.80;1.05;;;;;;;-143.60;100.00;57988.34;2067082;28;20050;-74
2022/04/21 06:09:07;;;;;;;7.90;2.05;;;;;;;-143.60;100.00;57988.34;2081852;28;20453;-74
2022/04/21 06:10:28;;;;;;;4.90;1.83;;;;;;;-143.60;100.00;57988.34;2074005;28;20127;-74
2022/04/21 06:11:50;;;;;;;3.83;1.30;;;;;;;-143.60;100.00;57988.34;2078076;28;20072;-74
2022/04/21 06:13:15;;;;;;;3.17;1.50;;;;;;;-143.60;100.00;57988.34;2062533;28;20097;-75
2022/04/21 06:14:38;;;;;;;4.15;1.38;;;;;;;-143.60;100.00;57988.34;2083650;28;20091;-75
2022/04/21 06:16:01;;;;;;;5.20;1.80;;;;;;;-143.60;100.00;57988.34;2058613;28;20576;-74
2022/04/21 06:17:25;;;;;;;5.90;1.40;;;;;;;-143.60;100.00;57988.34;2059234;28;20050;-74
2022/04/21 06:18:47;;;;;;;6.93;1.50;;;;;;;-143.60;100.00;57988.34;2061286;28;20516;-75
2022/04/21 06:20:09;;;;;;;3.35;1.27;;;;;;;-143.60;100.00;57988.34;2068616;28;20054;-74
2022/04/21 06:21:32;;;;;;;4.07;1.42;;;;;;;-143.60;100.00;57988.34;2060902;28;20066;-74
2022/04/21 06:22:56;;;;;;;3.47;1.38;;;;;;;-143.60;100.00;57988.34;2080812;28;20558;-75
2022/04/21 06:24:18;;;;;;;6.03;1.50;;;;;;;-143.60;100.00;57988.34;2066908;28;20101;-75
2022/04/21 06:25:40;;;;;;;7.78;2.10;;;;;;;-143.60;100.00;57988.34;2061731;28;20046;-75
2022/04/21 06:27:03;;;;;;;6.97;1.50;;;;;;;-143.60;100.00;57988.34;2077662;28;20045;-75
2022/04/21 06:28:28;;;;;;;5.95;1.35;;;;;;;-143.60;100.00;57988.34;2066781;28;20092;-75
2022/04/21 06:29:50;;;;;;;3.88;1.77;;;;;;;-143.60;100.00;57988.34;2077781;28;20041;-75
2022/04/21 06:31:12;;;;;;;3.65;1.30;;;;;;;-143.60;100.00;57988.34;2068441;28;20046;-75
2022/04/21 06:32:34;;;;;;;3.85;1.30;;;;;;;-143.60;100.00;57988.34;2061385;28;20061;-74
2022/04/21 06:33:57;;;;;;;7.35;2.30;;;;;;;-143.60;100.00;57988.34;2061870;28;20105;-75
2022/04/21 06:35:20;;;;;;;2.20;1.25;;;;;;;-143.60;100.00;57988.34;2065456;28;20522;-75
2022/04/21 06:36:42;;;;;;;4.07;1.40;;;;;;;-143.60;100.00;57988.34;2066226;28;20856;-74
2022/04/21 06:38:07;;;;;;;5.03;1.20;;;;;;;-143.60;100.00;57988.34;2066495;28;20046;-75
2022/04/21 06:39:29;;;;;;;4.85;1.40;;;;;;;-143.60;100.00;57988.34;2080787;28;20064;-75
2022/04/21 06:40:51;;;;;;;7.95;1.55;;;;;;;-143.60;100.00;57988.34;2076222;28;20140;-75
2022/04/21 06:42:14;;;;;;;4.80;1.50;;;;;;;-143.60;100.00;57988.34;2075516;28;20120;-75
2022/04/21 06:48:42;;;;;;;2.72;1.15;;;;;;;-143.60;100.00;57988.34;2061943;28;20073;-75
2022/04/21 06:50:05;;;;;;;2.83;1.40;;;;;;;-143.60;100.00;57988.34;2080022;28;20041;-75
2022/04/21 06:51:28;;;;;;;3.83;1.88;;;;;;;-143.60;100.00;57988.34;2064853;28;20478;-74
2022/04/21 06:52:51;;;;;;;5.88;2.00;;;;;;;-143.60;100.00;57988.34;2081482;28;20047;-75